sensor_id;sensor_type;location;lat;lon;timestamp;pressure;altitude;pressure_sealevel;temperature;humidity
59055;BME280;44845;51.444;7.460;2023-05-02T00:02:24;99959.53;;;12.07;71.18
59055;BME280;44845;51.444;7.460;2023-05-02T00:04:50;99957.81;;;12.02;70.97
59055;BME280;44845;51.444;7.460;2023-05-02T00:07:15;99957.00;;;11.97;71.09
59055;BME280;44845;51.444;7.460;2023-05-02T00:09:40;99959.78;;;11.86;71.68
59055;BME280;44845;51.444;7.460;2023-05-02T00:12:06;99955.34;;;11.90;71.73
59055;BME280;44845;51.444;7.460;2023-05-02T00:14:31;99957.19;;;11.81;72.02
59055;BME280;44845;51.444;7.460;2023-05-02T00:16:57;99953.75;;;11.76;72.17
59055;BME280;44845;51.444;7.460;2023-05-02T00:19:22;99957.19;;;11.85;71.93
59055;BME280;44845;51.444;7.460;2023-05-02T00:21:48;99962.47;;;11.81;72.19
59055;BME280;44845;51.444;7.460;2023-05-02T00:24:14;99967.81;;;11.72;72.06
59055;BME280;44845;51.444;7.460;2023-05-02T00:26:39;99964.38;;;11.64;72.51
59055;BME280;44845;51.444;7.460;2023-05-02T00:29:04;99969.63;;;11.67;72.53
59055;BME280;44845;51.444;7.460;2023-05-02T00:31:30;99975.81;;;11.59;72.66
59055;BME280;44845;51.444;7.460;2023-05-02T00:33:55;99975.84;;;11.56;72.69
59055;BME280;44845;51.444;7.460;2023-05-02T00:36:21;99981.94;;;11.62;72.47
59055;BME280;44845;51.444;7.460;2023-05-02T00:38:46;99983.66;;;11.63;72.54
59055;BME280;44845;51.444;7.460;2023-05-02T00:41:12;99978.34;;;11.69;72.60
59055;BME280;44845;51.444;7.460;2023-05-02T00:43:38;99990.56;;;11.73;72.90
59055;BME280;44845;51.444;7.460;2023-05-02T00:46:04;99992.34;;;11.71;72.97
59055;BME280;44845;51.444;7.460;2023-05-02T00:48:30;99992.34;;;11.68;73.26
59055;BME280;44845;51.444;7.460;2023-05-02T00:50:55;99987.09;;;11.71;73.10
59055;BME280;44845;51.444;7.460;2023-05-02T00:53:21;99990.63;;;11.67;73.18
59055;BME280;44845;51.444;7.460;2023-05-02T00:55:47;99994.13;;;11.66;73.20
59055;BME280;44845;51.444;7.460;2023-05-02T00:58:14;99988.88;;;11.66;73.50
59055;BME280;44845;51.444;7.460;2023-05-02T01:12:13;99992.31;;;11.74;73.50
59055;BME280;44845;51.444;7.460;2023-05-02T01:14:41;99988.75;;;11.78;73.71
59055;BME280;44845;51.444;7.460;2023-05-02T01:17:10;99994.09;;;11.70;73.88
59055;BME280;44845;51.444;7.460;2023-05-02T01:19:46;99997.50;;;11.80;73.70
59055;BME280;44845;51.444;7.460;2023-05-02T01:22:15;100001.00;;;11.78;73.57
59055;BME280;44845;51.444;7.460;2023-05-02T01:25:13;100007.13;;;11.81;73.42
59055;BME280;44845;51.444;7.460;2023-05-02T01:30:56;100001.94;;;11.74;73.93
59055;BME280;44845;51.444;7.460;2023-05-02T01:33:24;100010.69;;;11.73;73.98
59055;BME280;44845;51.444;7.460;2023-05-02T01:35:51;100014.31;;;11.62;74.10
59055;BME280;44845;51.444;7.460;2023-05-02T01:38:18;100025.69;;;11.61;74.27
59055;BME280;44845;51.444;7.460;2023-05-02T01:40:45;100020.38;;;11.72;74.21
59055;BME280;44845;51.444;7.460;2023-05-02T01:43:12;100016.84;;;11.70;74.03
59055;BME280;44845;51.444;7.460;2023-05-02T01:45:40;100025.66;;;11.66;73.94
59055;BME280;44845;51.444;7.460;2023-05-02T01:48:08;100027.44;;;11.64;74.17
59055;BME280;44845;51.444;7.460;2023-05-02T01:50:35;100014.22;;;11.70;74.17
59055;BME280;44845;51.444;7.460;2023-05-02T01:53:02;100025.63;;;11.72;74.18
59055;BME280;44845;51.444;7.460;2023-05-02T01:55:28;100032.66;;;11.67;74.40
59055;BME280;44845;51.444;7.460;2023-05-02T01:57:54;100032.66;;;11.67;73.96
59055;BME280;44845;51.444;7.460;2023-05-02T02:00:21;100040.63;;;11.56;74.17
59055;BME280;44845;51.444;7.460;2023-05-02T02:02:48;100040.75;;;11.45;74.69
59055;BME280;44845;51.444;7.460;2023-05-02T02:05:17;100045.00;;;11.60;74.56
59055;BME280;44845;51.444;7.460;2023-05-02T02:07:43;100042.28;;;11.68;74.24
59055;BME280;44845;51.444;7.460;2023-05-02T02:10:09;100052.88;;;11.55;74.39
59055;BME280;44845;51.444;7.460;2023-05-02T02:12:41;100056.50;;;11.43;74.97
59055;BME280;44845;51.444;7.460;2023-05-02T02:17:45;100054.69;;;11.52;74.94
59055;BME280;44845;51.444;7.460;2023-05-02T02:20:14;100063.41;;;11.54;74.74
59055;BME280;44845;51.444;7.460;2023-05-02T02:22:42;100068.75;;;11.41;74.92
59055;BME280;44845;51.444;7.460;2023-05-02T02:25:14;100065.22;;;11.50;74.82
59055;BME280;44845;51.444;7.460;2023-05-02T02:27:40;100069.63;;;11.45;75.11
59055;BME280;44845;51.444;7.460;2023-05-02T02:30:07;100078.34;;;11.50;74.77
59055;BME280;44845;51.444;7.460;2023-05-02T02:32:32;100075.75;;;11.41;74.94
59055;BME280;44845;51.444;7.460;2023-05-02T02:34:58;100076.75;;;11.30;75.28
59055;BME280;44845;51.444;7.460;2023-05-02T02:37:31;100083.69;;;11.37;75.33
59055;BME280;44845;51.444;7.460;2023-05-02T02:48:06;100085.56;;;11.13;75.94
59055;BME280;44845;51.444;7.460;2023-05-02T02:50:45;100087.28;;;11.24;75.91
59055;BME280;44845;51.444;7.460;2023-05-02T02:53:19;100090.75;;;11.29;75.35
59055;BME280;44845;51.444;7.460;2023-05-02T02:55:56;100078.44;;;11.37;75.51
59055;BME280;44845;51.444;7.460;2023-05-02T03:00:56;100090.66;;;11.42;75.06
59055;BME280;44845;51.444;7.460;2023-05-02T03:03:23;100090.72;;;11.35;75.14
59055;BME280;44845;51.444;7.460;2023-05-02T03:05:54;100096.78;;;11.41;75.17
59055;BME280;44845;51.444;7.460;2023-05-02T03:08:19;100100.41;;;11.22;75.60
59055;BME280;44845;51.444;7.460;2023-05-02T03:10:45;100102.97;;;11.29;76.03
59055;BME280;44845;51.444;7.460;2023-05-02T03:13:10;100101.22;;;11.32;75.25
59055;BME280;44845;51.444;7.460;2023-05-02T03:18:48;100103.00;;;11.30;75.89
59055;BME280;44845;51.444;7.460;2023-05-02T03:21:13;100102.13;;;11.30;75.85
59055;BME280;44845;51.444;7.460;2023-05-02T03:23:38;100110.00;;;11.30;75.58
59055;BME280;44845;51.444;7.460;2023-05-02T03:26:04;100111.78;;;11.23;75.66
59055;BME280;44845;51.444;7.460;2023-05-02T03:28:30;100120.53;;;11.25;75.37
59055;BME280;44845;51.444;7.460;2023-05-02T03:30:55;100113.53;;;11.21;75.63
59055;BME280;44845;51.444;7.460;2023-05-02T03:33:20;100111.78;;;11.23;75.76
59055;BME280;44845;51.444;7.460;2023-05-02T03:35:46;100115.31;;;11.19;75.66
59055;BME280;44845;51.444;7.460;2023-05-02T03:38:12;100118.78;;;11.24;75.91
59055;BME280;44845;51.444;7.460;2023-05-02T03:40:37;100121.38;;;11.30;75.43
59055;BME280;44845;51.444;7.460;2023-05-02T03:43:02;100122.22;;;11.31;75.39
59055;BME280;44845;51.444;7.460;2023-05-02T03:45:28;100129.25;;;11.30;75.28
59055;BME280;44845;51.444;7.460;2023-05-02T03:47:53;100133.63;;;11.26;75.58
59055;BME280;44845;51.444;7.460;2023-05-02T03:50:18;100132.81;;;11.13;75.69
59055;BME280;44845;51.444;7.460;2023-05-02T03:52:44;100130.97;;;11.31;75.19
59055;BME280;44845;51.444;7.460;2023-05-02T03:55:09;100130.19;;;11.23;75.62
59055;BME280;44845;51.444;7.460;2023-05-02T03:57:35;100133.69;;;11.20;75.49
59055;BME280;44845;51.444;7.460;2023-05-02T04:00:00;100137.13;;;11.29;75.20
59055;BME280;44845;51.444;7.460;2023-05-02T04:02:26;100134.47;;;11.32;75.27
59055;BME280;44845;51.444;7.460;2023-05-02T04:04:51;100132.72;;;11.35;75.12
59055;BME280;44845;51.444;7.460;2023-05-02T04:07:16;100139.69;;;11.40;74.91
59055;BME280;44845;51.444;7.460;2023-05-02T04:09:45;100134.50;;;11.27;75.09
59055;BME280;44845;51.444;7.460;2023-05-02T04:12:10;100133.66;;;11.25;75.05
59055;BME280;44845;51.444;7.460;2023-05-02T04:14:36;100132.81;;;11.20;75.26
59055;BME280;44845;51.444;7.460;2023-05-02T04:17:01;100133.63;;;11.26;75.52
59055;BME280;44845;51.444;7.460;2023-05-02T04:19:26;100140.63;;;11.32;75.67
59055;BME280;44845;51.444;7.460;2023-05-02T04:21:52;100144.13;;;11.33;75.38
59055;BME280;44845;51.444;7.460;2023-05-02T04:24:17;100142.38;;;11.27;75.57
59055;BME280;44845;51.444;7.460;2023-05-02T04:26:43;100146.75;;;11.26;75.28
59055;BME280;44845;51.444;7.460;2023-05-02T04:29:08;100145.91;;;11.21;75.51
59055;BME280;44845;51.444;7.460;2023-05-02T04:31:34;100153.78;;;11.28;74.92
59055;BME280;44845;51.444;7.460;2023-05-02T04:33:59;100164.25;;;11.29;74.56
59055;BME280;44845;51.444;7.460;2023-05-02T04:36:25;100168.66;;;11.22;74.83
59055;BME280;44845;51.444;7.460;2023-05-02T04:38:52;100173.06;;;11.19;74.96
59055;BME280;44845;51.444;7.460;2023-05-02T04:41:17;100169.56;;;11.23;74.86
59055;BME280;44845;51.444;7.460;2023-05-02T04:43:43;100176.53;;;11.25;74.79
59055;BME280;44845;51.444;7.460;2023-05-02T04:46:08;100171.28;;;11.24;74.70
59055;BME280;44845;51.444;7.460;2023-05-02T04:48:34;100176.56;;;11.18;75.29
59055;BME280;44845;51.444;7.460;2023-05-02T04:50:59;100187.91;;;11.28;75.68
59055;BME280;44845;51.444;7.460;2023-05-02T04:53:25;100187.06;;;11.18;76.45
59055;BME280;44845;51.444;7.460;2023-05-02T04:55:50;100188.78;;;11.22;76.95
59055;BME280;44845;51.444;7.460;2023-05-02T04:58:16;100186.22;;;11.12;78.12
59055;BME280;44845;51.444;7.460;2023-05-02T05:00:41;100195.81;;;11.20;78.24
59055;BME280;44845;51.444;7.460;2023-05-02T05:03:07;100200.16;;;11.25;78.08
59055;BME280;44845;51.444;7.460;2023-05-02T05:05:32;100194.06;;;11.20;78.22
59055;BME280;44845;51.444;7.460;2023-05-02T05:07:57;100198.47;;;11.15;78.83
59055;BME280;44845;51.444;7.460;2023-05-02T05:10:23;100202.84;;;11.11;78.60
59055;BME280;44845;51.444;7.460;2023-05-02T05:12:48;100204.59;;;11.09;78.93
59055;BME280;44845;51.444;7.460;2023-05-02T05:15:14;100209.84;;;11.09;79.10
59055;BME280;44845;51.444;7.460;2023-05-02T05:17:39;100213.31;;;11.18;79.16
59055;BME280;44845;51.444;7.460;2023-05-02T05:20:06;100218.59;;;11.14;79.00
59055;BME280;44845;51.444;7.460;2023-05-02T05:22:40;100228.19;;;11.20;79.16
59055;BME280;44845;51.444;7.460;2023-05-02T05:25:09;100227.38;;;11.04;79.98
59055;BME280;44845;51.444;7.460;2023-05-02T05:27:35;100232.56;;;11.23;79.28
59055;BME280;44845;51.444;7.460;2023-05-02T05:30:01;100235.19;;;11.17;79.09
59055;BME280;44845;51.444;7.460;2023-05-02T05:32:26;100242.25;;;11.05;80.13
59055;BME280;44845;51.444;7.460;2023-05-02T05:34:52;100238.69;;;11.14;79.95
59055;BME280;44845;51.444;7.460;2023-05-02T05:37:18;100243.94;;;11.20;79.36
59055;BME280;44845;51.444;7.460;2023-05-02T05:39:43;100250.94;;;11.17;79.55
59055;BME280;44845;51.444;7.460;2023-05-02T05:42:09;100248.34;;;11.10;79.92
59055;BME280;44845;51.444;7.460;2023-05-02T05:44:35;100251.88;;;10.97;80.25
59055;BME280;44845;51.444;7.460;2023-05-02T05:47:00;100250.97;;;11.04;80.24
59055;BME280;44845;51.444;7.460;2023-05-02T05:49:26;100262.38;;;10.97;80.69
59055;BME280;44845;51.444;7.460;2023-05-02T05:51:51;100264.13;;;10.91;80.89
59055;BME280;44845;51.444;7.460;2023-05-02T05:54:17;100264.19;;;10.80;80.52
59055;BME280;44845;51.444;7.460;2023-05-02T05:56:42;100272.03;;;10.82;81.04
59055;BME280;44845;51.444;7.460;2023-05-02T05:59:08;100283.44;;;10.81;81.33
59055;BME280;44845;51.444;7.460;2023-05-02T06:01:33;100280.78;;;10.75;81.00
59055;BME280;44845;51.444;7.460;2023-05-02T06:04:00;100283.44;;;10.65;81.00
59055;BME280;44845;51.444;7.460;2023-05-02T06:06:25;100286.94;;;10.48;81.06
59055;BME280;44845;51.444;7.460;2023-05-02T06:08:52;100288.66;;;10.40;81.93
59055;BME280;44845;51.444;7.460;2023-05-02T06:11:17;100293.97;;;10.54;81.32
59055;BME280;44845;51.444;7.460;2023-05-02T06:13:42;100310.53;;;10.55;80.95
59055;BME280;44845;51.444;7.460;2023-05-02T06:16:08;100301.78;;;10.46;81.24
59055;BME280;44845;51.444;7.460;2023-05-02T06:18:33;100313.13;;;10.33;80.58
59055;BME280;44845;51.444;7.460;2023-05-02T06:21:05;100317.50;;;10.35;79.94
59055;BME280;44845;51.444;7.460;2023-05-02T06:23:30;100313.13;;;10.33;79.86
59055;BME280;44845;51.444;7.460;2023-05-02T06:26:00;100314.00;;;10.33;79.15
59055;BME280;44845;51.444;7.460;2023-05-02T06:28:26;100316.66;;;10.32;78.62
59055;BME280;44845;51.444;7.460;2023-05-02T06:31:03;100316.63;;;10.21;79.18
59055;BME280;44845;51.444;7.460;2023-05-02T06:33:29;100317.50;;;10.40;78.97
59055;BME280;44845;51.444;7.460;2023-05-02T06:35:55;100322.75;;;10.46;78.98
59055;BME280;44845;51.444;7.460;2023-05-02T06:38:21;100320.16;;;10.62;79.08
59055;BME280;44845;51.444;7.460;2023-05-02T06:40:47;100334.16;;;10.58;78.92
59055;BME280;44845;51.444;7.460;2023-05-02T06:43:13;100334.16;;;10.66;79.83
59055;BME280;44845;51.444;7.460;2023-05-02T06:45:39;100335.91;;;10.78;79.66
59055;BME280;44845;51.444;7.460;2023-05-02T06:48:05;100342.00;;;10.83;78.39
59055;BME280;44845;51.444;7.460;2023-05-02T06:50:31;100348.13;;;10.88;79.22
59055;BME280;44845;51.444;7.460;2023-05-02T06:52:57;100344.63;;;10.96;79.02
59055;BME280;44845;51.444;7.460;2023-05-02T06:55:22;100357.72;;;11.02;78.05
59055;BME280;44845;51.444;7.460;2023-05-02T06:57:48;100358.63;;;11.01;76.82
59055;BME280;44845;51.444;7.460;2023-05-02T07:00:15;100360.38;;;10.67;77.26
59055;BME280;44845;51.444;7.460;2023-05-02T07:02:41;100363.00;;;10.78;78.06
59055;BME280;44845;51.444;7.460;2023-05-02T07:05:06;100362.13;;;10.87;78.19
59055;BME280;44845;51.444;7.460;2023-05-02T07:07:32;100363.84;;;10.91;78.47
59055;BME280;44845;51.444;7.460;2023-05-02T07:09:59;100370.88;;;10.92;76.87
59055;BME280;44845;51.444;7.460;2023-05-02T07:12:25;100384.00;;;10.78;76.37
59055;BME280;44845;51.444;7.460;2023-05-02T07:14:50;100382.22;;;10.91;77.33
59055;BME280;44845;51.444;7.460;2023-05-02T07:17:16;100390.09;;;11.04;76.67
59055;BME280;44845;51.444;7.460;2023-05-02T07:19:41;100397.09;;;11.13;78.00
59055;BME280;44845;51.444;7.460;2023-05-02T07:22:06;100399.69;;;11.16;77.96
59055;BME280;44845;51.444;7.460;2023-05-02T07:24:32;100402.34;;;11.14;76.37
59055;BME280;44845;51.444;7.460;2023-05-02T07:26:57;100400.59;;;11.04;75.55
59055;BME280;44845;51.444;7.460;2023-05-02T07:29:23;100400.59;;;11.10;76.21
59055;BME280;44845;51.444;7.460;2023-05-02T07:31:48;100412.84;;;11.13;76.53
59055;BME280;44845;51.444;7.460;2023-05-02T07:34:14;100414.59;;;10.97;76.06
59055;BME280;44845;51.444;7.460;2023-05-02T07:36:39;100413.72;;;10.91;75.41
59055;BME280;44845;51.444;7.460;2023-05-02T07:39:04;100413.75;;;10.88;75.39
59055;BME280;44845;51.444;7.460;2023-05-02T07:41:30;100419.84;;;10.81;74.75
59055;BME280;44845;51.444;7.460;2023-05-02T07:43:55;100417.22;;;10.89;76.23
59055;BME280;44845;51.444;7.460;2023-05-02T07:46:22;100428.59;;;10.94;76.31
59055;BME280;44845;51.444;7.460;2023-05-02T07:48:47;100425.09;;;10.84;76.18
59055;BME280;44845;51.444;7.460;2023-05-02T07:51:13;100427.72;;;10.83;75.07
59055;BME280;44845;51.444;7.460;2023-05-02T07:53:38;100425.09;;;10.68;75.22
59055;BME280;44845;51.444;7.460;2023-05-02T07:56:04;100433.81;;;10.67;76.23
59055;BME280;44845;51.444;7.460;2023-05-02T07:58:31;100432.09;;;10.68;76.16
59055;BME280;44845;51.444;7.460;2023-05-02T08:00:56;100436.44;;;10.64;77.13
59055;BME280;44845;51.444;7.460;2023-05-02T08:03:21;100444.31;;;10.64;77.87
59055;BME280;44845;51.444;7.460;2023-05-02T08:05:47;100449.56;;;10.52;77.88
59055;BME280;44845;51.444;7.460;2023-05-02T08:08:12;100457.34;;;10.34;78.38
59055;BME280;44845;51.444;7.460;2023-05-02T08:10:38;100459.81;;;9.95;77.88
59055;BME280;44845;51.444;7.460;2023-05-02T08:13:03;100471.09;;;9.83;77.69
59055;BME280;44845;51.444;7.460;2023-05-02T08:15:28;100473.50;;;9.47;78.60
59055;BME280;44845;51.444;7.460;2023-05-02T08:17:54;100483.97;;;9.41;79.27
59055;BME280;44845;51.444;7.460;2023-05-02T08:20:20;100486.66;;;9.56;79.09
59055;BME280;44845;51.444;7.460;2023-05-02T08:22:47;100497.97;;;9.46;78.77
59055;BME280;44845;51.444;7.460;2023-05-02T08:25:12;100496.00;;;9.20;78.06
59055;BME280;44845;51.444;7.460;2023-05-02T08:27:37;100499.16;;;8.81;79.01
59055;BME280;44845;51.444;7.460;2023-05-02T08:30:03;100512.94;;;8.64;79.73
59055;BME280;44845;51.444;7.460;2023-05-02T08:32:31;100507.72;;;8.64;79.76
59055;BME280;44845;51.444;7.460;2023-05-02T08:34:56;100509.28;;;8.50;80.00
59055;BME280;44845;51.444;7.460;2023-05-02T08:37:21;100514.88;;;8.84;80.92
59055;BME280;44845;51.444;7.460;2023-05-02T08:39:47;100516.78;;;9.03;79.87
59055;BME280;44845;51.444;7.460;2023-05-02T08:42:12;100523.63;;;8.86;79.75
59055;BME280;44845;51.444;7.460;2023-05-02T08:44:38;100528.97;;;8.99;79.46
59055;BME280;44845;51.444;7.460;2023-05-02T08:47:04;100528.00;;;8.89;78.10
59055;BME280;44845;51.444;7.460;2023-05-02T08:49:31;100531.72;;;9.11;77.70
59055;BME280;44845;51.444;7.460;2023-05-02T08:51:58;100544.88;;;9.21;78.58
59055;BME280;44845;51.444;7.460;2023-05-02T08:54:24;100546.56;;;9.16;77.38
59055;BME280;44845;51.444;7.460;2023-05-02T08:56:52;100549.00;;;8.95;77.38
59055;BME280;44845;51.444;7.460;2023-05-02T08:59:19;100552.22;;;8.71;78.62
59055;BME280;44845;51.444;7.460;2023-05-02T09:01:48;100563.38;;;8.57;79.14
59055;BME280;44845;51.444;7.460;2023-05-02T09:04:19;100567.91;;;8.67;79.25
59055;BME280;44845;51.444;7.460;2023-05-02T09:06:47;100566.97;;;8.64;77.94
59055;BME280;44845;51.444;7.460;2023-05-02T09:09:13;100572.44;;;8.84;78.44
59055;BME280;44845;51.444;7.460;2023-05-02T09:11:38;100574.16;;;8.85;77.75
59055;BME280;44845;51.444;7.460;2023-05-02T09:14:13;100581.31;;;9.02;76.18
59055;BME280;44845;51.444;7.460;2023-05-02T09:16:39;100585.91;;;9.23;77.18
59055;BME280;44845;51.444;7.460;2023-05-02T09:19:04;100586.78;;;9.27;75.19
59055;BME280;44845;51.444;7.460;2023-05-02T09:21:39;100588.53;;;9.23;75.68
59055;BME280;44845;51.444;7.460;2023-05-02T09:24:21;100588.53;;;9.25;76.83
59055;BME280;44845;51.444;7.460;2023-05-02T09:27:03;100584.38;;;9.49;74.88
59055;BME280;44845;51.444;7.460;2023-05-02T09:29:30;100592.22;;;9.46;75.14
59055;BME280;44845;51.444;7.460;2023-05-02T09:32:02;100598.13;;;9.24;75.01
59055;BME280;44845;51.444;7.460;2023-05-02T09:34:28;100596.50;;;9.38;75.25
59055;BME280;44845;51.444;7.460;2023-05-02T09:36:54;100600.94;;;9.45;75.21
59055;BME280;44845;51.444;7.460;2023-05-02T09:39:22;100600.78;;;9.29;74.68
59055;BME280;44845;51.444;7.460;2023-05-02T09:41:47;100606.97;;;9.36;76.08
59055;BME280;44845;51.444;7.460;2023-05-02T09:44:14;100603.38;;;9.29;74.95
59055;BME280;44845;51.444;7.460;2023-05-02T09:46:44;100609.34;;;9.12;74.95
59055;BME280;44845;51.444;7.460;2023-05-02T09:49:10;100619.94;;;9.25;75.40
59055;BME280;44845;51.444;7.460;2023-05-02T09:51:35;100615.47;;;9.15;75.37
59055;BME280;44845;51.444;7.460;2023-05-02T09:54:01;100623.31;;;9.13;74.88
59055;BME280;44845;51.444;7.460;2023-05-02T09:56:27;100633.59;;;8.96;75.98
59055;BME280;44845;51.444;7.460;2023-05-02T09:59:12;100636.69;;;8.63;74.67
59055;BME280;44845;51.444;7.460;2023-05-02T10:01:39;100641.06;;;8.64;75.41
59055;BME280;44845;51.444;7.460;2023-05-02T10:04:13;100643.00;;;8.81;76.58
59055;BME280;44845;51.444;7.460;2023-05-02T10:06:43;100642.38;;;9.01;75.98
59055;BME280;44845;51.444;7.460;2023-05-02T10:09:09;100646.06;;;9.20;76.08
59055;BME280;44845;51.444;7.460;2023-05-02T10:11:37;100645.25;;;9.26;75.51
59055;BME280;44845;51.444;7.460;2023-05-02T10:14:03;100646.13;;;9.27;74.96
59055;BME280;44845;51.444;7.460;2023-05-02T10:16:32;100647.88;;;9.26;74.14
59055;BME280;44845;51.444;7.460;2023-05-02T10:19:11;100645.59;;;9.61;74.99
59055;BME280;44845;51.444;7.460;2023-05-02T10:21:39;100652.59;;;9.63;76.24
59055;BME280;44845;51.444;7.460;2023-05-02T10:24:07;100651.88;;;9.85;76.29
59055;BME280;44845;51.444;7.460;2023-05-02T10:26:33;100649.16;;;9.74;73.01
59055;BME280;44845;51.444;7.460;2023-05-02T10:29:00;100652.78;;;9.85;73.17
59055;BME280;44845;51.444;7.460;2023-05-02T10:31:27;100651.81;;;9.75;72.83
59055;BME280;44845;51.444;7.460;2023-05-02T10:33:54;100657.75;;;9.55;70.72
59055;BME280;44845;51.444;7.460;2023-05-02T10:36:21;100654.88;;;9.30;70.91
59055;BME280;44845;51.444;7.460;2023-05-02T10:38:47;100659.78;;;8.99;71.40
59055;BME280;44845;51.444;7.460;2023-05-02T10:41:21;100652.97;;;9.14;72.20
59055;BME280;44845;51.444;7.460;2023-05-02T10:43:48;100651.16;;;9.06;71.68
59055;BME280;44845;51.444;7.460;2023-05-02T10:46:34;100653.03;;;9.17;71.23
59055;BME280;44845;51.444;7.460;2023-05-02T10:49:10;100649.56;;;9.21;72.36
59055;BME280;44845;51.444;7.460;2023-05-02T10:51:38;100654.13;;;9.44;72.74
59055;BME280;44845;51.444;7.460;2023-05-02T10:59:35;100665.94;;;9.96;72.07
59055;BME280;44845;51.444;7.460;2023-05-02T11:02:01;100662.41;;;9.88;69.56
59055;BME280;44845;51.444;7.460;2023-05-02T11:05:02;100653.78;;;10.05;69.37
59055;BME280;44845;51.444;7.460;2023-05-02T11:07:28;100659.09;;;10.12;71.21
59055;BME280;44845;51.444;7.460;2023-05-02T11:12:55;100659.16;;;10.25;69.08
59055;BME280;44845;51.444;7.460;2023-05-02T11:18:04;100660.91;;;10.28;70.68
59055;BME280;44845;51.444;7.460;2023-05-02T11:20:34;100668.81;;;10.32;70.08
59055;BME280;44845;51.444;7.460;2023-05-02T11:25:44;100664.41;;;10.23;65.82
59055;BME280;44845;51.444;7.460;2023-05-02T11:28:44;100660.91;;;10.26;68.66
59055;BME280;44845;51.444;7.460;2023-05-02T11:33:59;100666.97;;;10.17;66.59
59055;BME280;44845;51.444;7.460;2023-05-02T11:36:32;100670.63;;;10.41;67.57
59055;BME280;44845;51.444;7.460;2023-05-02T11:39:02;100671.44;;;10.31;64.99
59055;BME280;44845;51.444;7.460;2023-05-02T11:41:41;100663.59;;;10.34;65.95
59055;BME280;44845;51.444;7.460;2023-05-02T11:44:07;100677.50;;;10.22;64.22
59055;BME280;44845;51.444;7.460;2023-05-02T11:46:35;100673.19;;;10.32;65.09
59055;BME280;44845;51.444;7.460;2023-05-02T11:49:02;100677.66;;;10.48;65.98
59055;BME280;44845;51.444;7.460;2023-05-02T11:51:27;100672.47;;;10.55;66.26
59055;BME280;44845;51.444;7.460;2023-05-02T11:53:53;100673.47;;;10.82;68.89
59055;BME280;44845;51.444;7.460;2023-05-02T11:56:22;100667.34;;;10.81;63.17
59055;BME280;44845;51.444;7.460;2023-05-02T11:59:00;100670.03;;;10.86;64.58
59055;BME280;44845;51.444;7.460;2023-05-02T12:01:26;100669.13;;;10.89;65.08
59055;BME280;44845;51.444;7.460;2023-05-02T12:04:03;100675.28;;;10.92;63.51
59055;BME280;44845;51.444;7.460;2023-05-02T12:06:29;100681.28;;;10.68;63.13
59055;BME280;44845;51.444;7.460;2023-05-02T12:09:05;100682.16;;;10.68;63.35
59055;BME280;44845;51.444;7.460;2023-05-02T12:11:32;100684.00;;;10.91;64.51
59055;BME280;44845;51.444;7.460;2023-05-02T12:13:57;100681.44;;;11.07;64.87
59055;BME280;44845;51.444;7.460;2023-05-02T12:16:23;100688.41;;;10.96;62.37
59055;BME280;44845;51.444;7.460;2023-05-02T12:18:48;100684.88;;;10.86;61.76
59055;BME280;44845;51.444;7.460;2023-05-02T12:21:14;100691.91;;;10.98;62.38
59055;BME280;44845;51.444;7.460;2023-05-02T12:23:39;100689.34;;;11.13;60.79
59055;BME280;44845;51.444;7.460;2023-05-02T12:26:22;100688.47;;;11.16;64.32
59055;BME280;44845;51.444;7.460;2023-05-02T12:28:56;100690.25;;;11.25;66.54
59055;BME280;44845;51.444;7.460;2023-05-02T12:31:22;100689.31;;;11.09;62.12
59055;BME280;44845;51.444;7.460;2023-05-02T12:33:48;100694.63;;;11.23;64.65
59055;BME280;44845;51.444;7.460;2023-05-02T12:36:15;100689.38;;;11.26;62.98
59055;BME280;44845;51.444;7.460;2023-05-02T12:38:56;100690.25;;;11.20;58.82
59055;BME280;44845;51.444;7.460;2023-05-02T12:41:38;100694.63;;;11.23;60.77
59055;BME280;44845;51.444;7.460;2023-05-02T12:44:07;100708.59;;;11.19;58.96
59055;BME280;44845;51.444;7.460;2023-05-02T12:46:33;100704.22;;;11.08;59.20
59055;BME280;44845;51.444;7.460;2023-05-02T12:49:05;100708.66;;;11.25;58.99
59055;BME280;44845;51.444;7.460;2023-05-02T12:51:32;100701.66;;;11.41;58.84
59055;BME280;44845;51.444;7.460;2023-05-02T12:53:58;100695.59;;;11.64;60.46
59055;BME280;44845;51.444;7.460;2023-05-02T12:56:24;100697.34;;;11.73;58.04
59055;BME280;44845;51.444;7.460;2023-05-02T12:58:51;100699.09;;;11.62;54.68
59055;BME280;44845;51.444;7.460;2023-05-02T13:01:17;100699.09;;;11.66;52.89
59055;BME280;44845;51.444;7.460;2023-05-02T13:03:42;100705.22;;;11.70;55.01
59055;BME280;44845;51.444;7.460;2023-05-02T13:06:10;100708.75;;;11.85;57.49
59055;BME280;44845;51.444;7.460;2023-05-02T13:08:35;100703.50;;;11.72;53.82
59055;BME280;44845;51.444;7.460;2023-05-02T13:11:02;100706.97;;;11.65;55.18
59055;BME280;44845;51.444;7.460;2023-05-02T13:13:27;100713.88;;;11.22;55.12
59055;BME280;44845;51.444;7.460;2023-05-02T13:15:53;100722.50;;;10.92;55.99
59055;BME280;44845;51.444;7.460;2023-05-02T13:18:19;100733.09;;;11.13;54.88
59055;BME280;44845;51.444;7.460;2023-05-02T13:20:44;100734.78;;;10.94;54.24
59055;BME280;44845;51.444;7.460;2023-05-02T13:23:09;100727.88;;;11.18;53.73
59055;BME280;44845;51.444;7.460;2023-05-02T13:25:35;100726.16;;;11.29;52.32
59055;BME280;44845;51.444;7.460;2023-05-02T13:28:00;100722.72;;;11.43;53.07
59055;BME280;44845;51.444;7.460;2023-05-02T13:30:25;100719.19;;;11.47;51.69
59055;BME280;44845;51.444;7.460;2023-05-02T13:32:51;100722.69;;;11.40;53.18
59055;BME280;44845;51.444;7.460;2023-05-02T13:35:17;100727.81;;;11.05;51.24
59055;BME280;44845;51.444;7.460;2023-05-02T13:37:42;100720.88;;;11.20;50.48
59055;BME280;44845;51.444;7.460;2023-05-02T13:40:07;100725.28;;;11.32;51.62
59055;BME280;44845;51.444;7.460;2023-05-02T13:42:33;100728.72;;;11.10;50.94